sensor_id;sensor_type;location;lat;lon;timestamp;temperature;humidity
25046;DHT22;13044;49.304;12.840;2022-09-29T00:00:49;8.60;99.90
25046;DHT22;13044;49.304;12.840;2022-09-29T00:03:17;8.60;99.90
25046;DHT22;13044;49.304;12.840;2022-09-29T00:05:52;8.60;99.90
25046;DHT22;13044;49.304;12.840;2022-09-29T00:08:23;8.50;99.90
25046;DHT22;13044;49.304;12.840;2022-09-29T00:10:51;8.50;99.90
25046;DHT22;13044;49.304;12.840;2022-09-29T00:13:18;8.50;99.90
25046;DHT22;13044;49.304;12.840;2022-09-29T00:15:54;8.50;99.90
25046;DHT22;13044;49.304;12.840;2022-09-29T00:18:22;8.40;99.90
25046;DHT22;13044;49.304;12.840;2022-09-29T00:21:09;8.40;99.90
25046;DHT22;13044;49.304;12.840;2022-09-29T00:23:38;8.40;99.90
25046;DHT22;13044;49.304;12.840;2022-09-29T00:26:28;8.40;99.90
25046;DHT22;13044;49.304;12.840;2022-09-29T00:28:57;8.30;99.90
25046;DHT22;13044;49.304;12.840;2022-09-29T00:31:27;8.30;99.90
25046;DHT22;13044;49.304;12.840;2022-09-29T00:33:56;8.30;99.90
25046;DHT22;13044;49.304;12.840;2022-09-29T00:36:24;8.40;99.90
25046;DHT22;13044;49.304;12.840;2022-09-29T00:38:56;8.30;99.90
25046;DHT22;13044;49.304;12.840;2022-09-29T00:41:27;8.30;99.90
25046;DHT22;13044;49.304;12.840;2022-09-29T00:44:48;8.30;99.90
25046;DHT22;13044;49.304;12.840;2022-09-29T00:47:15;8.30;99.90
25046;DHT22;13044;49.304;12.840;2022-09-29T00:49:46;8.30;99.90
25046;DHT22;13044;49.304;12.840;2022-09-29T00:52:36;8.30;99.90
25046;DHT22;13044;49.304;12.840;2022-09-29T00:55:17;8.30;99.90
25046;DHT22;13044;49.304;12.840;2022-09-29T01:00:26;8.40;99.90
25046;DHT22;13044;49.304;12.840;2022-09-29T01:02:58;8.40;99.90
25046;DHT22;13044;49.304;12.840;2022-09-29T01:05:32;8.40;99.90
25046;DHT22;13044;49.304;12.840;2022-09-29T01:08:08;8.40;99.90
25046;DHT22;13044;49.304;12.840;2022-09-29T01:10:47;8.40;99.90
25046;DHT22;13044;49.304;12.840;2022-09-29T01:13:16;8.50;99.90
25046;DHT22;13044;49.304;12.840;2022-09-29T01:15:44;8.50;99.90
25046;DHT22;13044;49.304;12.840;2022-09-29T01:18:11;8.50;99.90
25046;DHT22;13044;49.304;12.840;2022-09-29T01:21:12;8.50;99.90
25046;DHT22;13044;49.304;12.840;2022-09-29T01:27:11;8.70;99.90
25046;DHT22;13044;49.304;12.840;2022-09-29T01:39:06;8.60;99.90
25046;DHT22;13044;49.304;12.840;2022-09-29T01:42:15;8.60;99.90
25046;DHT22;13044;49.304;12.840;2022-09-29T01:47:35;8.50;99.90
25046;DHT22;13044;49.304;12.840;2022-09-29T01:50:19;8.50;99.90
25046;DHT22;13044;49.304;12.840;2022-09-29T01:52:54;8.60;99.90
25046;DHT22;13044;49.304;12.840;2022-09-29T01:55:29;8.70;99.90
25046;DHT22;13044;49.304;12.840;2022-09-29T01:58:01;8.70;99.90
25046;DHT22;13044;49.304;12.840;2022-09-29T02:00:31;8.70;99.90
25046;DHT22;13044;49.304;12.840;2022-09-29T02:03:14;8.60;99.90
25046;DHT22;13044;49.304;12.840;2022-09-29T02:06:03;8.60;99.90
25046;DHT22;13044;49.304;12.840;2022-09-29T02:08:47;8.50;99.90
25046;DHT22;13044;49.304;12.840;2022-09-29T02:11:17;8.60;99.90
25046;DHT22;13044;49.304;12.840;2022-09-29T02:16:39;8.70;99.90
25046;DHT22;13044;49.304;12.840;2022-09-29T02:19:13;8.80;99.90
25046;DHT22;13044;49.304;12.840;2022-09-29T02:21:44;8.80;99.90
25046;DHT22;13044;49.304;12.840;2022-09-29T02:24:12;8.70;99.90
25046;DHT22;13044;49.304;12.840;2022-09-29T02:26:39;8.70;99.90
25046;DHT22;13044;49.304;12.840;2022-09-29T02:29:07;8.70;99.90
25046;DHT22;13044;49.304;12.840;2022-09-29T02:31:36;8.70;99.90
25046;DHT22;13044;49.304;12.840;2022-09-29T02:34:03;8.80;99.90
25046;DHT22;13044;49.304;12.840;2022-09-29T02:42:22;8.80;99.90
25046;DHT22;13044;49.304;12.840;2022-09-29T02:48:28;8.90;99.90
25046;DHT22;13044;49.304;12.840;2022-09-29T02:57:07;8.80;99.90
25046;DHT22;13044;49.304;12.840;2022-09-29T03:00:12;8.90;99.90
25046;DHT22;13044;49.304;12.840;2022-09-29T03:02:41;8.80;99.90
25046;DHT22;13044;49.304;12.840;2022-09-29T03:05:17;8.80;99.90
25046;DHT22;13044;49.304;12.840;2022-09-29T03:07:45;8.80;99.90
25046;DHT22;13044;49.304;12.840;2022-09-29T03:10:15;8.70;99.90
25046;DHT22;13044;49.304;12.840;2022-09-29T03:12:42;8.80;99.90
25046;DHT22;13044;49.304;12.840;2022-09-29T03:15:09;8.80;99.90
25046;DHT22;13044;49.304;12.840;2022-09-29T03:17:39;8.70;99.90
25046;DHT22;13044;49.304;12.840;2022-09-29T03:20:06;8.70;99.90
25046;DHT22;13044;49.304;12.840;2022-09-29T03:22:34;8.70;99.90
25046;DHT22;13044;49.304;12.840;2022-09-29T03:25:01;8.60;99.90
25046;DHT22;13044;49.304;12.840;2022-09-29T03:27:30;8.60;99.90
25046;DHT22;13044;49.304;12.840;2022-09-29T03:29:57;8.60;99.90
25046;DHT22;13044;49.304;12.840;2022-09-29T03:32:24;8.60;99.90
25046;DHT22;13044;49.304;12.840;2022-09-29T03:34:51;8.70;99.90
25046;DHT22;13044;49.304;12.840;2022-09-29T03:37:18;8.70;99.90
25046;DHT22;13044;49.304;12.840;2022-09-29T03:39:44;8.70;99.90
25046;DHT22;13044;49.304;12.840;2022-09-29T03:42:11;8.80;99.90
25046;DHT22;13044;49.304;12.840;2022-09-29T03:44:38;8.90;99.90
25046;DHT22;13044;49.304;12.840;2022-09-29T03:47:05;8.90;99.90
25046;DHT22;13044;49.304;12.840;2022-09-29T03:49:31;8.80;99.90
25046;DHT22;13044;49.304;12.840;2022-09-29T03:51:58;8.80;99.90
25046;DHT22;13044;49.304;12.840;2022-09-29T03:54:25;8.80;99.90
25046;DHT22;13044;49.304;12.840;2022-09-29T03:56:53;8.90;99.90
25046;DHT22;13044;49.304;12.840;2022-09-29T03:59:20;8.90;99.90
25046;DHT22;13044;49.304;12.840;2022-09-29T04:01:47;8.80;99.90
25046;DHT22;13044;49.304;12.840;2022-09-29T04:04:13;8.90;99.90
25046;DHT22;13044;49.304;12.840;2022-09-29T04:06:40;8.90;99.90
25046;DHT22;13044;49.304;12.840;2022-09-29T04:09:07;8.90;99.90
25046;DHT22;13044;49.304;12.840;2022-09-29T04:11:34;9.00;99.90
25046;DHT22;13044;49.304;12.840;2022-09-29T04:14:01;9.00;99.90
25046;DHT22;13044;49.304;12.840;2022-09-29T04:16:27;9.10;99.90
25046;DHT22;13044;49.304;12.840;2022-09-29T04:18:54;9.10;99.90
25046;DHT22;13044;49.304;12.840;2022-09-29T04:21:21;9.10;99.90
25046;DHT22;13044;49.304;12.840;2022-09-29T04:23:48;9.10;99.90
25046;DHT22;13044;49.304;12.840;2022-09-29T04:26:15;9.10;99.90
25046;DHT22;13044;49.304;12.840;2022-09-29T04:28:42;9.10;99.90
25046;DHT22;13044;49.304;12.840;2022-09-29T04:31:09;9.10;99.90
25046;DHT22;13044;49.304;12.840;2022-09-29T04:33:36;9.00;99.90
25046;DHT22;13044;49.304;12.840;2022-09-29T04:36:04;9.00;99.90
25046;DHT22;13044;49.304;12.840;2022-09-29T04:38:31;9.00;99.90
25046;DHT22;13044;49.304;12.840;2022-09-29T04:40:58;9.00;99.90
25046;DHT22;13044;49.304;12.840;2022-09-29T04:43:25;9.00;99.90
25046;DHT22;13044;49.304;12.840;2022-09-29T04:45:52;9.00;99.90
25046;DHT22;13044;49.304;12.840;2022-09-29T04:48:19;8.90;99.90
25046;DHT22;13044;49.304;12.840;2022-09-29T04:50:46;8.90;99.90
25046;DHT22;13044;49.304;12.840;2022-09-29T04:53:14;8.90;99.90
25046;DHT22;13044;49.304;12.840;2022-09-29T04:55:40;8.90;99.90
25046;DHT22;13044;49.304;12.840;2022-09-29T04:58:07;8.80;99.90
25046;DHT22;13044;49.304;12.840;2022-09-29T05:00:34;8.80;99.90
25046;DHT22;13044;49.304;12.840;2022-09-29T05:03:01;8.70;99.90
25046;DHT22;13044;49.304;12.840;2022-09-29T05:05:28;8.60;99.90
25046;DHT22;13044;49.304;12.840;2022-09-29T05:07:55;8.40;99.90
25046;DHT22;13044;49.304;12.840;2022-09-29T05:10:25;8.40;99.90
25046;DHT22;13044;49.304;12.840;2022-09-29T05:12:52;8.30;99.90
25046;DHT22;13044;49.304;12.840;2022-09-29T05:15:19;8.30;99.90
25046;DHT22;13044;49.304;12.840;2022-09-29T05:17:51;8.30;99.90
25046;DHT22;13044;49.304;12.840;2022-09-29T05:20:18;8.20;99.90
25046;DHT22;13044;49.304;12.840;2022-09-29T05:22:45;8.20;99.90
25046;DHT22;13044;49.304;12.840;2022-09-29T05:25:12;8.10;99.90
25046;DHT22;13044;49.304;12.840;2022-09-29T05:27:39;8.20;99.90
25046;DHT22;13044;49.304;12.840;2022-09-29T05:32:33;8.10;99.90
25046;DHT22;13044;49.304;12.840;2022-09-29T05:35:00;8.10;99.90
25046;DHT22;13044;49.304;12.840;2022-09-29T05:37:28;8.10;99.90
25046;DHT22;13044;49.304;12.840;2022-09-29T05:39:55;8.20;99.90
25046;DHT22;13044;49.304;12.840;2022-09-29T05:42:22;8.20;99.90
25046;DHT22;13044;49.304;12.840;2022-09-29T05:44:51;8.30;99.90
25046;DHT22;13044;49.304;12.840;2022-09-29T05:47:18;8.30;99.90
25046;DHT22;13044;49.304;12.840;2022-09-29T05:49:45;8.30;99.90
25046;DHT22;13044;49.304;12.840;2022-09-29T05:52:11;8.20;99.90
25046;DHT22;13044;49.304;12.840;2022-09-29T05:54:38;8.20;99.90
25046;DHT22;13044;49.304;12.840;2022-09-29T05:57:05;8.10;99.90
25046;DHT22;13044;49.304;12.840;2022-09-29T05:59:32;8.20;99.90
25046;DHT22;13044;49.304;12.840;2022-09-29T06:01:59;8.20;99.90
25046;DHT22;13044;49.304;12.840;2022-09-29T06:04:26;8.20;99.90
25046;DHT22;13044;49.304;12.840;2022-09-29T06:06:53;8.20;99.90
25046;DHT22;13044;49.304;12.840;2022-09-29T06:09:20;8.40;99.90
25046;DHT22;13044;49.304;12.840;2022-09-29T06:11:47;8.50;99.90
25046;DHT22;13044;49.304;12.840;2022-09-29T06:14:14;8.60;99.90
25046;DHT22;13044;49.304;12.840;2022-09-29T06:16:41;8.60;99.90
25046;DHT22;13044;49.304;12.840;2022-09-29T06:19:08;8.60;99.90
25046;DHT22;13044;49.304;12.840;2022-09-29T06:21:35;8.70;99.90
25046;DHT22;13044;49.304;12.840;2022-09-29T06:24:03;8.70;99.90
25046;DHT22;13044;49.304;12.840;2022-09-29T06:26:32;8.70;99.90
25046;DHT22;13044;49.304;12.840;2022-09-29T06:29:00;8.80;99.90
25046;DHT22;13044;49.304;12.840;2022-09-29T06:31:28;8.80;99.90
25046;DHT22;13044;49.304;12.840;2022-09-29T06:34:01;8.90;99.90
25046;DHT22;13044;49.304;12.840;2022-09-29T06:36:35;8.90;99.90
25046;DHT22;13044;49.304;12.840;2022-09-29T06:39:23;8.90;99.90
25046;DHT22;13044;49.304;12.840;2022-09-29T06:41:50;9.00;99.90
25046;DHT22;13044;49.304;12.840;2022-09-29T06:44:23;8.90;99.90
25046;DHT22;13044;49.304;12.840;2022-09-29T06:46:53;8.90;99.90
25046;DHT22;13044;49.304;12.840;2022-09-29T06:49:21;8.90;99.90
25046;DHT22;13044;49.304;12.840;2022-09-29T06:51:49;8.90;99.90
25046;DHT22;13044;49.304;12.840;2022-09-29T06:54:18;9.00;99.90
25046;DHT22;13044;49.304;12.840;2022-09-29T06:56:47;9.00;99.90
25046;DHT22;13044;49.304;12.840;2022-09-29T06:59:15;9.00;99.90
25046;DHT22;13044;49.304;12.840;2022-09-29T07:01:42;9.00;99.90
25046;DHT22;13044;49.304;12.840;2022-09-29T07:04:09;9.00;99.90
25046;DHT22;13044;49.304;12.840;2022-09-29T07:06:36;8.90;99.90
25046;DHT22;13044;49.304;12.840;2022-09-29T07:09:03;8.90;99.90
25046;DHT22;13044;49.304;12.840;2022-09-29T07:11:30;8.90;99.90
25046;DHT22;13044;49.304;12.840;2022-09-29T07:13:57;8.90;99.90
25046;DHT22;13044;49.304;12.840;2022-09-29T07:16:23;9.00;99.90
25046;DHT22;13044;49.304;12.840;2022-09-29T07:18:51;9.10;99.90
25046;DHT22;13044;49.304;12.840;2022-09-29T07:21:18;9.20;99.90
25046;DHT22;13044;49.304;12.840;2022-09-29T07:23:47;9.30;99.90
25046;DHT22;13044;49.304;12.840;2022-09-29T07:26:15;9.40;99.90
25046;DHT22;13044;49.304;12.840;2022-09-29T07:28:44;9.50;99.90
25046;DHT22;13044;49.304;12.840;2022-09-29T07:31:14;9.40;99.90
25046;DHT22;13044;49.304;12.840;2022-09-29T07:33:46;9.50;99.90
25046;DHT22;13044;49.304;12.840;2022-09-29T07:36:17;9.50;99.90
25046;DHT22;13044;49.304;12.840;2022-09-29T07:38:46;9.60;99.90
25046;DHT22;13044;49.304;12.840;2022-09-29T07:41:15;9.50;99.90
25046;DHT22;13044;49.304;12.840;2022-09-29T07:43:42;9.50;99.90
25046;DHT22;13044;49.304;12.840;2022-09-29T07:46:09;9.60;99.90
25046;DHT22;13044;49.304;12.840;2022-09-29T07:48:37;9.60;99.90
25046;DHT22;13044;49.304;12.840;2022-09-29T07:51:13;9.70;99.90
25046;DHT22;13044;49.304;12.840;2022-09-29T07:53:42;9.70;99.90
25046;DHT22;13044;49.304;12.840;2022-09-29T07:56:15;9.70;99.90
25046;DHT22;13044;49.304;12.840;2022-09-29T07:58:45;9.70;99.90
25046;DHT22;13044;49.304;12.840;2022-09-29T08:01:13;9.70;99.90
25046;DHT22;13044;49.304;12.840;2022-09-29T08:03:44;9.70;99.90
25046;DHT22;13044;49.304;12.840;2022-09-29T08:06:14;9.70;99.90
25046;DHT22;13044;49.304;12.840;2022-09-29T08:08:41;9.80;99.90
25046;DHT22;13044;49.304;12.840;2022-09-29T08:11:22;9.80;99.90
25046;DHT22;13044;49.304;12.840;2022-09-29T08:13:57;9.80;99.90
25046;DHT22;13044;49.304;12.840;2022-09-29T08:16:25;9.90;99.90
25046;DHT22;13044;49.304;12.840;2022-09-29T08:18:52;10.00;99.90
25046;DHT22;13044;49.304;12.840;2022-09-29T08:21:19;10.10;99.90
25046;DHT22;13044;49.304;12.840;2022-09-29T08:23:46;10.20;99.90
25046;DHT22;13044;49.304;12.840;2022-09-29T08:26:19;10.30;99.90
25046;DHT22;13044;49.304;12.840;2022-09-29T08:29:05;10.40;99.90
25046;DHT22;13044;49.304;12.840;2022-09-29T08:31:35;10.50;99.90
25046;DHT22;13044;49.304;12.840;2022-09-29T08:34:04;10.40;99.90
25046;DHT22;13044;49.304;12.840;2022-09-29T08:36:32;10.50;99.90
25046;DHT22;13044;49.304;12.840;2022-09-29T08:38:59;10.50;99.90
25046;DHT22;13044;49.304;12.840;2022-09-29T08:47:48;10.50;99.90
25046;DHT22;13044;49.304;12.840;2022-09-29T08:50:42;10.50;99.90
25046;DHT22;13044;49.304;12.840;2022-09-29T08:53:15;10.50;99.90
25046;DHT22;13044;49.304;12.840;2022-09-29T08:56:00;10.50;99.90
25046;DHT22;13044;49.304;12.840;2022-09-29T08:58:30;10.50;99.90
25046;DHT22;13044;49.304;12.840;2022-09-29T09:09:48;10.60;99.90
25046;DHT22;13044;49.304;12.840;2022-09-29T09:12:46;10.70;99.90
25046;DHT22;13044;49.304;12.840;2022-09-29T09:15:40;10.80;99.90
25046;DHT22;13044;49.304;12.840;2022-09-29T09:19:08;10.80;99.90
25046;DHT22;13044;49.304;12.840;2022-09-29T09:24:47;11.00;99.90
25046;DHT22;13044;49.304;12.840;2022-09-29T09:27:30;11.00;99.90
25046;DHT22;13044;49.304;12.840;2022-09-29T09:30:03;11.10;99.90
25046;DHT22;13044;49.304;12.840;2022-09-29T09:32:36;11.30;99.90
25046;DHT22;13044;49.304;12.840;2022-09-29T09:35:26;11.50;99.90
25046;DHT22;13044;49.304;12.840;2022-09-29T09:38:26;11.60;99.90
25046;DHT22;13044;49.304;12.840;2022-09-29T09:40:59;11.80;99.90
25046;DHT22;13044;49.304;12.840;2022-09-29T09:43:31;12.00;99.90
25046;DHT22;13044;49.304;12.840;2022-09-29T09:46:07;12.00;99.90
25046;DHT22;13044;49.304;12.840;2022-09-29T09:48:45;12.20;99.90
25046;DHT22;13044;49.304;12.840;2022-09-29T09:51:29;12.10;99.90
25046;DHT22;13044;49.304;12.840;2022-09-29T09:54:04;12.10;99.90
25046;DHT22;13044;49.304;12.840;2022-09-29T10:00:31;12.10;99.90
25046;DHT22;13044;49.304;12.840;2022-09-29T10:02:47;12.00;99.90
25046;DHT22;13044;49.304;12.840;2022-09-29T10:05:21;12.10;99.90
25046;DHT22;13044;49.304;12.840;2022-09-29T10:07:51;12.10;99.90
25046;DHT22;13044;49.304;12.840;2022-09-29T10:10:21;12.20;99.90
25046;DHT22;13044;49.304;12.840;2022-09-29T10:13:02;12.30;99.90
25046;DHT22;13044;49.304;12.840;2022-09-29T10:15:55;12.30;99.90
25046;DHT22;13044;49.304;12.840;2022-09-29T10:18:45;12.40;99.90
25046;DHT22;13044;49.304;12.840;2022-09-29T10:21:33;12.40;99.90
25046;DHT22;13044;49.304;12.840;2022-09-29T10:24:03;12.40;99.90
25046;DHT22;13044;49.304;12.840;2022-09-29T10:26:40;12.50;99.90
25046;DHT22;13044;49.304;12.840;2022-09-29T10:32:16;12.50;99.90
25046;DHT22;13044;49.304;12.840;2022-09-29T10:34:52;12.40;99.90
25046;DHT22;13044;49.304;12.840;2022-09-29T10:37:34;12.40;99.90
25046;DHT22;13044;49.304;12.840;2022-09-29T10:40:12;12.60;99.90
25046;DHT22;13044;49.304;12.840;2022-09-29T10:42:47;12.70;99.90
25046;DHT22;13044;49.304;12.840;2022-09-29T10:45:18;12.70;99.90
25046;DHT22;13044;49.304;12.840;2022-09-29T10:50:27;12.70;99.90
25046;DHT22;13044;49.304;12.840;2022-09-29T10:53:05;12.70;99.90
25046;DHT22;13044;49.304;12.840;2022-09-29T10:55:52;12.80;99.90
25046;DHT22;13044;49.304;12.840;2022-09-29T10:58:28;12.80;99.90
25046;DHT22;13044;49.304;12.840;2022-09-29T11:01:18;13.00;99.90
25046;DHT22;13044;49.304;12.840;2022-09-29T11:03:49;13.10;99.90
25046;DHT22;13044;49.304;12.840;2022-09-29T11:06:31;13.20;99.90
25046;DHT22;13044;49.304;12.840;2022-09-29T11:14:50;13.40;99.90
25046;DHT22;13044;49.304;12.840;2022-09-29T11:17:24;13.30;99.90
25046;DHT22;13044;49.304;12.840;2022-09-29T11:20:00;13.40;99.90
25046;DHT22;13044;49.304;12.840;2022-09-29T11:23:06;13.40;99.90
25046;DHT22;13044;49.304;12.840;2022-09-29T11:38:30;13.40;99.90
25046;DHT22;13044;49.304;12.840;2022-09-29T11:41:05;13.40;99.90
25046;DHT22;13044;49.304;12.840;2022-09-29T11:44:08;13.40;99.90
25046;DHT22;13044;49.304;12.840;2022-09-29T11:52:49;13.50;99.90
25046;DHT22;13044;49.304;12.840;2022-09-29T11:55:43;13.50;99.90
25046;DHT22;13044;49.304;12.840;2022-09-29T12:01:12;13.60;99.90
25046;DHT22;13044;49.304;12.840;2022-09-29T12:06:55;13.80;99.90
25046;DHT22;13044;49.304;12.840;2022-09-29T12:09:36;13.70;99.90
25046;DHT22;13044;49.304;12.840;2022-09-29T12:12:34;13.80;99.90
25046;DHT22;13044;49.304;12.840;2022-09-29T12:18:14;13.80;99.90
25046;DHT22;13044;49.304;12.840;2022-09-29T12:21:00;13.80;99.90
25046;DHT22;13044;49.304;12.840;2022-09-29T12:23:30;13.90;99.90
25046;DHT22;13044;49.304;12.840;2022-09-29T12:26:10;14.00;99.90
25046;DHT22;13044;49.304;12.840;2022-09-29T12:29:00;14.00;99.90
25046;DHT22;13044;49.304;12.840;2022-09-29T12:31:35;14.00;99.90
25046;DHT22;13044;49.304;12.840;2022-09-29T12:37:05;13.80;99.90
25046;DHT22;13044;49.304;12.840;2022-09-29T12:48:05;13.70;99.90
25046;DHT22;13044;49.304;12.840;2022-09-29T12:50:51;14.20;99.90
25046;DHT22;13044;49.304;12.840;2022-09-29T12:56:56;14.50;99.90
25046;DHT22;13044;49.304;12.840;2022-09-29T13:16:56;14.00;99.90
25046;DHT22;13044;49.304;12.840;2022-09-29T13:28:55;13.80;99.90
25046;DHT22;13044;49.304;12.840;2022-09-29T13:31:27;13.80;99.90
25046;DHT22;13044;49.304;12.840;2022-09-29T13:34:01;13.90;99.90
25046;DHT22;13044;49.304;12.840;2022-09-29T13:36:36;13.90;99.90
25046;DHT22;13044;49.304;12.840;2022-09-29T13:39:21;13.90;99.90
25046;DHT22;13044;49.304;12.840;2022-09-29T13:41:52;14.10;99.90
25046;DHT22;13044;49.304;12.840;2022-09-29T13:44:26;14.10;99.90
25046;DHT22;13044;49.304;12.840;2022-09-29T13:46:54;14.10;99.90
25046;DHT22;13044;49.304;12.840;2022-09-29T13:49:27;14.10;99.90
25046;DHT22;13044;49.304;12.840;2022-09-29T13:54:41;14.00;99.90
25046;DHT22;13044;49.304;12.840;2022-09-29T14:02:36;14.00;99.90
25046;DHT22;13044;49.304;12.840;2022-09-29T14:05:51;13.90;99.90
25046;DHT22;13044;49.304;12.840;2022-09-29T14:10:37;13.90;99.90
25046;DHT22;13044;49.304;12.840;2022-09-29T14:15:43;14.00;99.90
25046;DHT22;13044;49.304;12.840;2022-09-29T14:35:37;14.10;99.90
25046;DHT22;13044;49.304;12.840;2022-09-29T14:38:31;14.10;99.90
25046;DHT22;13044;49.304;12.840;2022-09-29T14:41:22;14.10;99.90
25046;DHT22;13044;49.304;12.840;2022-09-29T14:44:01;14.00;99.90
25046;DHT22;13044;49.304;12.840;2022-09-29T15:01:31;13.60;99.90
25046;DHT22;13044;49.304;12.840;2022-09-29T15:04:14;13.50;99.90
25046;DHT22;13044;49.304;12.840;2022-09-29T15:06:46;13.50;99.90
25046;DHT22;13044;49.304;12.840;2022-09-29T15:09:24;13.40;99.90
25046;DHT22;13044;49.304;12.840;2022-09-29T15:11:52;13.40;99.90
25046;DHT22;13044;49.304;12.840;2022-09-29T15:14:21;13.30;99.90
25046;DHT22;13044;49.304;12.840;2022-09-29T15:17:19;13.30;99.90
25046;DHT22;13044;49.304;12.840;2022-09-29T15:26:35;13.10;99.90
25046;DHT22;13044;49.304;12.840;2022-09-29T15:29:09;13.10;99.90
25046;DHT22;13044;49.304;12.840;2022-09-29T15:31:44;13.00;99.90
25046;DHT22;13044;49.304;12.840;2022-09-29T15:34:21;13.00;99.90
25046;DHT22;13044;49.304;12.840;2022-09-29T15:36:53;13.00;99.90
25046;DHT22;13044;49.304;12.840;2022-09-29T15:42:17;12.90;99.90
25046;DHT22;13044;49.304;12.840;2022-09-29T15:44:58;12.90;99.90
25046;DHT22;13044;49.304;12.840;2022-09-29T15:47:36;12.90;99.90
25046;DHT22;13044;49.304;12.840;2022-09-29T15:50:16;12.90;99.90
25046;DHT22;13044;49.304;12.840;2022-09-29T15:52:45;12.80;99.90
25046;DHT22;13044;49.304;12.840;2022-09-29T15:55:15;12.80;99.90
25046;DHT22;13044;49.304;12.840;2022-09-29T15:57:47;12.80;99.90
25046;DHT22;13044;49.304;12.840;2022-09-29T16:03:03;12.80;99.90
25046;DHT22;13044;49.304;12.840;2022-09-29T16:05:40;12.70;99.90
25046;DHT22;13044;49.304;12.840;2022-09-29T16:08:18;12.70;99.90
25046;DHT22;13044;49.304;12.840;2022-09-29T16:10:53;12.60;99.90
25046;DHT22;13044;49.304;12.840;2022-09-29T16:13:24;12.60;99.90
25046;DHT22;13044;49.304;12.840;2022-09-29T16:15:57;12.60;99.90
25046;DHT22;13044;49.304;12.840;2022-09-29T16:18:51;12.60;99.90
25046;DHT22;13044;49.304;12.840;2022-09-29T16:21:22;12.50;99.90
25046;DHT22;13044;49.304;12.840;2022-09-29T16:24:11;12.50;99.90
25046;DHT22;13044;49.304;12.840;2022-09-29T16:26:53;12.50;99.90
25046;DHT22;13044;49.304;12.840;2022-09-29T16:35:35;12.40;99.90
25046;DHT22;13044;49.304;12.840;2022-09-29T16:47:23;12.30;99.90
25046;DHT22;13044;49.304;12.840;2022-09-29T16:50:08;12.20;99.90
25046;DHT22;13044;49.304;12.840;2022-09-29T16:52:43;12.20;99.90
25046;DHT22;13044;49.304;12.840;2022-09-29T16:57:56;12.10;99.90
25046;DHT22;13044;49.304;12.840;2022-09-29T17:00:25;12.10;99.90
25046;DHT22;13044;49.304;12.840;2022-09-29T17:02:53;12.10;99.90
25046;DHT22;13044;49.304;12.840;2022-09-29T17:05:24;12.10;99.90
25046;DHT22;13044;49.304;12.840;2022-09-29T17:08:00;12.00;99.90
25046;DHT22;13044;49.304;12.840;2022-09-29T17:10:29;12.00;99.90
25046;DHT22;13044;49.304;12.840;2022-09-29T17:12:57;12.00;99.90
25046;DHT22;13044;49.304;12.840;2022-09-29T17:15:24;12.00;99.90
25046;DHT22;13044;49.304;12.840;2022-09-29T17:17:52;12.00;99.90
25046;DHT22;13044;49.304;12.840;2022-09-29T17:20:21;11.90;99.90
25046;DHT22;13044;49.304;12.840;2022-09-29T17:22:56;11.90;99.90
25046;DHT22;13044;49.304;12.840;2022-09-29T17:25:25;11.80;99.90
25046;DHT22;13044;49.304;12.840;2022-09-29T17:27:52;11.80;99.90
25046;DHT22;13044;49.304;12.840;2022-09-29T17:30:38;11.80;99.90
25046;DHT22;13044;49.304;12.840;2022-09-29T17:33:08;11.80;99.90
25046;DHT22;13044;49.304;12.840;2022-09-29T17:35:38;11.80;99.90
25046;DHT22;13044;49.304;12.840;2022-09-29T17:38:07;11.80;99.90
25046;DHT22;13044;49.304;12.840;2022-09-29T17:40:48;11.80;99.90
25046;DHT22;13044;49.304;12.840;2022-09-29T17:43:19;11.70;99.90
25046;DHT22;13044;49.304;12.840;2022-09-29T17:45:46;11.70;99.90
25046;DHT22;13044;49.304;12.840;2022-09-29T17:48:13;11.70;99.90
25046;DHT22;13044;49.304;12.840;2022-09-29T17:50:44;11.70;99.90
25046;DHT22;13044;49.304;12.840;2022-09-29T17:53:13;11.60;99.90
25046;DHT22;13044;49.304;12.840;2022-09-29T17:55:41;11.60;99.90
25046;DHT22;13044;49.304;12.840;2022-09-29T17:58:11;11.60;99.90
25046;DHT22;13044;49.304;12.840;2022-09-29T18:00:42;11.60;99.90
25046;DHT22;13044;49.304;12.840;2022-09-29T18:03:11;11.60;99.90
25046;DHT22;13044;49.304;12.840;2022-09-29T18:05:40;11.50;99.90
25046;DHT22;13044;49.304;12.840;2022-09-29T18:08:12;11.50;99.90
25046;DHT22;13044;49.304;12.840;2022-09-29T18:10:46;11.50;99.90
25046;DHT22;13044;49.304;12.840;2022-09-29T18:13:14;11.50;99.90
25046;DHT22;13044;49.304;12.840;2022-09-29T18:15:42;11.50;99.90
25046;DHT22;13044;49.304;12.840;2022-09-29T18:18:14;11.50;99.90
25046;DHT22;13044;49.304;12.840;2022-09-29T18:20:43;11.50;99.90
25046;DHT22;13044;49.304;12.840;2022-09-29T18:23:19;11.50;99.90
25046;DHT22;13044;49.304;12.840;2022-09-29T18:25:48;11.50;99.90
25046;DHT22;13044;49.304;12.840;2022-09-29T18:28:16;11.50;99.90
25046;DHT22;13044;49.304;12.840;2022-09-29T18:30:46;11.50;99.90
25046;DHT22;13044;49.304;12.840;2022-09-29T18:33:16;11.40;99.90
25046;DHT22;13044;49.304;12.840;2022-09-29T18:35:46;11.40;99.90
25046;DHT22;13044;49.304;12.840;2022-09-29T18:38:18;11.40;99.90
25046;DHT22;13044;49.304;12.840;2022-09-29T18:40:45;11.30;99.90
25046;DHT22;13044;49.304;12.840;2022-09-29T18:43:13;11.30;99.90
25046;DHT22;13044;49.304;12.840;2022-09-29T18:45:42;11.30;99.90
25046;DHT22;13044;49.304;12.840;2022-09-29T18:48:11;11.40;99.90
25046;DHT22;13044;49.304;12.840;2022-09-29T18:50:41;11.40;99.90
25046;DHT22;13044;49.304;12.840;2022-09-29T18:53:09;11.40;99.90
25046;DHT22;13044;49.304;12.840;2022-09-29T18:55:37;11.30;99.90
25046;DHT22;13044;49.304;12.840;2022-09-29T18:58:04;11.30;99.90
25046;DHT22;13044;49.304;12.840;2022-09-29T19:00:33;11.40;99.90
25046;DHT22;13044;49.304;12.840;2022-09-29T19:03:04;11.40;99.90
25046;DHT22;13044;49.304;12.840;2022-09-29T19:05:33;11.30;99.90
25046;DHT22;13044;49.304;12.840;2022-09-29T19:08:03;11.30;99.90
25046;DHT22;13044;49.304;12.840;2022-09-29T19:10:32;11.30;99.90
25046;DHT22;13044;49.304;12.840;2022-09-29T19:13:05;11.30;99.90
25046;DHT22;13044;49.304;12.840;2022-09-29T19:15:37;11.30;99.90
25046;DHT22;13044;49.304;12.840;2022-09-29T19:18:05;11.30;99.90
25046;DHT22;13044;49.304;12.840;2022-09-29T19:20:33;11.30;99.90
25046;DHT22;13044;49.304;12.840;2022-09-29T19:23:00;11.30;99.90
25046;DHT22;13044;49.304;12.840;2022-09-29T19:25:32;11.20;99.90
25046;DHT22;13044;49.304;12.840;2022-09-29T19:28:01;11.20;99.90
25046;DHT22;13044;49.304;12.840;2022-09-29T19:30:32;11.20;99.90
25046;DHT22;13044;49.304;12.840;2022-09-29T19:33:00;11.20;99.90
25046;DHT22;13044;49.304;12.840;2022-09-29T19:35:27;11.10;99.90